Sault Sainte Marie, MI (49783)

2:48 PM EDT on September 02, 2015 (GMT -0400)
Sault Ste Marie Municipal / Sanderson Field | | Change Station
CLOSE
Current Station
Airport
Location: Sault Ste Marie,
Elevation: 715 ft
Nearby Weather Stations

Elev 715 ft 46.48 °N, 84.36 °W | Updated 53 minutes ago

Haze
Haze
79 °F
Feels Like 79 °F
N
7
Wind Variable Wind from West

Today
High -- | Low -- °F
--% Chance of Precip.
Yesterday
High -- | Low -- °F
Precip. -- in
6:58 AM 8:14 PM
Waning Gibbous, 78% visible
Pressure 29.96 in
Visibility 5.0 miles
Clouds Clear
Dew Point 71 °F
Humidity 77%
Rainfall 0.00 in
Snow Depth Not available.
UV 8 out of 12
Pollen 10.20 out of 12
Air Quality Not available.
Flu Activity Not available.
METAR KANJ 021755Z AUTO 26006KT 5SM HZ CLR 26/22 A2997 RMK AO2 SLP145 T02610217 10261 20206 58004
Pressure 29.96 in
Visibility 5.0 miles
Clouds Clear
Dew Point 71 °F
Humidity 77%
Rainfall 0.00 in
Snow Depth Not available.
UV 8 out of 12
Pollen 10.20 out of 12
Air Quality Not available.
Flu Activity Not available.
METAR KANJ 021755Z AUTO 26006KT 5SM HZ CLR 26/22 A2997 RMK AO2 SLP145 T02610217 10261 20206 58004
Nowcast | as of 2:00 PM EDT on September 2, 2015

At 3 PM...mostly cloudy. Temperature 76. Northwest winds 8 mph. At 5 PM...partly cloudy. Temperature 76. Northwest winds 9 mph. At 7 PM...partly cloudy. Temperature 72. West winds 7 mph. At 9 PM...partly cloudy. Temperature 65. Northwest winds 6 mph.

×

10-Day Weather Forecast

×

Almanac

Astronomy

Sep. 02, 2015 Rise Set
Actual Time
Civil Twilight
Nautical Twilight
Astronomical Twilight
Moon
Length of Visible Light
Length of Day
Tomorrow will be .
, % of the Moon is Illuminated

Today's Extremes

State Highs State Lows

Community

WunderPhotos

Upload Photos

1,851,793 photos uploaded!

WunderBlogs® & News

Nearby

Air Quality

  Air Quality AQ Index Pollutant
Not available.

Snow Depth

Station Depth Elevation

Earthquake Activity

City Distance Mag. Time & Date
Minimum magnitude displayed is 2.5.

Coastal Water Temperatures

Place Temperature

Stations

Nearby Weather Stations

Station Location Temp. Windchill Dew Point Humidity Wind Precip. Elev Updated Type